sensor_id;sensor_type;location;lat;lon;timestamp;P1;durP1;ratioP1;P2;durP2;ratioP2
47545;SDS011;50104;52.002;4.688;2024-02-28T00:04:48;13.00;;;7.55;;
47545;SDS011;50104;52.002;4.688;2024-02-28T00:09:49;8.50;;;7.20;;
47545;SDS011;50104;52.002;4.688;2024-02-28T00:14:50;7.85;;;7.00;;
47545;SDS011;50104;52.002;4.688;2024-02-28T00:19:51;8.20;;;6.95;;
47545;SDS011;50104;52.002;4.688;2024-02-28T00:24:52;10.35;;;7.15;;
47545;SDS011;50104;52.002;4.688;2024-02-28T00:29:53;9.10;;;6.80;;
47545;SDS011;50104;52.002;4.688;2024-02-28T00:34:54;8.30;;;6.30;;
47545;SDS011;50104;52.002;4.688;2024-02-28T00:39:55;7.53;;;6.50;;
47545;SDS011;50104;52.002;4.688;2024-02-28T00:44:56;9.13;;;5.93;;
47545;SDS011;50104;52.002;4.688;2024-02-28T00:49:57;10.43;;;6.40;;
47545;SDS011;50104;52.002;4.688;2024-02-28T00:54:57;8.80;;;5.93;;
47545;SDS011;50104;52.002;4.688;2024-02-28T00:59:59;7.00;;;5.40;;
47545;SDS011;50104;52.002;4.688;2024-02-28T01:05:00;6.20;;;5.60;;
47545;SDS011;50104;52.002;4.688;2024-02-28T01:10:01;8.70;;;5.85;;
47545;SDS011;50104;52.002;4.688;2024-02-28T01:15:03;12.47;;;6.60;;
47545;SDS011;50104;52.002;4.688;2024-02-28T01:20:05;9.30;;;6.03;;
47545;SDS011;50104;52.002;4.688;2024-02-28T01:25:10;7.13;;;5.83;;
47545;SDS011;50104;52.002;4.688;2024-02-28T01:30:11;6.67;;;5.77;;
47545;SDS011;50104;52.002;4.688;2024-02-28T01:35:12;7.40;;;6.17;;
47545;SDS011;50104;52.002;4.688;2024-02-28T01:40:13;9.40;;;6.27;;
47545;SDS011;50104;52.002;4.688;2024-02-28T01:45:14;7.40;;;5.93;;
47545;SDS011;50104;52.002;4.688;2024-02-28T01:50:15;8.33;;;5.67;;
47545;SDS011;50104;52.002;4.688;2024-02-28T01:55:16;8.63;;;6.70;;
47545;SDS011;50104;52.002;4.688;2024-02-28T02:00:17;9.33;;;6.17;;
47545;SDS011;50104;52.002;4.688;2024-02-28T02:05:19;9.23;;;6.60;;
47545;SDS011;50104;52.002;4.688;2024-02-28T02:10:24;7.47;;;6.17;;
47545;SDS011;50104;52.002;4.688;2024-02-28T02:15:26;7.70;;;6.77;;
47545;SDS011;50104;52.002;4.688;2024-02-28T02:20:26;9.73;;;7.40;;
47545;SDS011;50104;52.002;4.688;2024-02-28T02:25:33;11.73;;;8.10;;
47545;SDS011;50104;52.002;4.688;2024-02-28T02:30:34;9.60;;;7.10;;
47545;SDS011;50104;52.002;4.688;2024-02-28T02:35:35;12.00;;;7.40;;
47545;SDS011;50104;52.002;4.688;2024-02-28T02:40:37;11.43;;;7.33;;
47545;SDS011;50104;52.002;4.688;2024-02-28T02:45:37;11.00;;;8.07;;
47545;SDS011;50104;52.002;4.688;2024-02-28T02:50:38;11.45;;;7.80;;
47545;SDS011;50104;52.002;4.688;2024-02-28T02:55:39;13.60;;;8.40;;
47545;SDS011;50104;52.002;4.688;2024-02-28T03:00:40;11.37;;;8.60;;
47545;SDS011;50104;52.002;4.688;2024-02-28T03:05:41;16.30;;;9.60;;
47545;SDS011;50104;52.002;4.688;2024-02-28T03:10:42;15.47;;;9.83;;
47545;SDS011;50104;52.002;4.688;2024-02-28T03:15:42;14.37;;;9.47;;
47545;SDS011;50104;52.002;4.688;2024-02-28T03:20:43;14.10;;;9.30;;
47545;SDS011;50104;52.002;4.688;2024-02-28T03:25:45;15.57;;;8.90;;
47545;SDS011;50104;52.002;4.688;2024-02-28T03:30:46;15.03;;;8.80;;
47545;SDS011;50104;52.002;4.688;2024-02-28T03:35:47;14.73;;;9.67;;
47545;SDS011;50104;52.002;4.688;2024-02-28T03:40:48;17.05;;;10.77;;
47545;SDS011;50104;52.002;4.688;2024-02-28T03:45:49;17.00;;;10.63;;
47545;SDS011;50104;52.002;4.688;2024-02-28T03:50:50;16.00;;;10.60;;
47545;SDS011;50104;52.002;4.688;2024-02-28T03:55:51;18.57;;;10.73;;
47545;SDS011;50104;52.002;4.688;2024-02-28T04:00:51;20.70;;;10.98;;
47545;SDS011;50104;52.002;4.688;2024-02-28T04:05:52;19.52;;;12.23;;
47545;SDS011;50104;52.002;4.688;2024-02-28T04:10:53;20.03;;;11.97;;
47545;SDS011;50104;52.002;4.688;2024-02-28T04:15:54;17.73;;;12.10;;
47545;SDS011;50104;52.002;4.688;2024-02-28T04:20:56;21.92;;;12.73;;
47545;SDS011;50104;52.002;4.688;2024-02-28T04:25:57;18.70;;;11.93;;
47545;SDS011;50104;52.002;4.688;2024-02-28T04:30:57;21.98;;;13.18;;
47545;SDS011;50104;52.002;4.688;2024-02-28T04:35:59;21.47;;;12.93;;
47545;SDS011;50104;52.002;4.688;2024-02-28T04:41:00;17.15;;;12.30;;
47545;SDS011;50104;52.002;4.688;2024-02-28T04:46:01;17.98;;;11.77;;
47545;SDS011;50104;52.002;4.688;2024-02-28T04:51:03;24.87;;;12.73;;
47545;SDS011;50104;52.002;4.688;2024-02-28T04:56:04;16.83;;;11.97;;
47545;SDS011;50104;52.002;4.688;2024-02-28T05:01:05;19.70;;;13.17;;
47545;SDS011;50104;52.002;4.688;2024-02-28T05:06:06;26.35;;;15.05;;
47545;SDS011;50104;52.002;4.688;2024-02-28T05:11:07;23.10;;;14.50;;
47545;SDS011;50104;52.002;4.688;2024-02-28T05:16:14;24.33;;;14.37;;
47545;SDS011;50104;52.002;4.688;2024-02-28T05:21:16;26.27;;;15.45;;
47545;SDS011;50104;52.002;4.688;2024-02-28T05:26:17;20.50;;;15.20;;
47545;SDS011;50104;52.002;4.688;2024-02-28T05:36:27;28.30;;;17.03;;
47545;SDS011;50104;52.002;4.688;2024-02-28T05:41:30;25.50;;;16.92;;
47545;SDS011;50104;52.002;4.688;2024-02-28T05:46:31;24.27;;;16.38;;
47545;SDS011;50104;52.002;4.688;2024-02-28T05:51:32;23.38;;;16.20;;
47545;SDS011;50104;52.002;4.688;2024-02-28T05:56:33;24.05;;;16.23;;
47545;SDS011;50104;52.002;4.688;2024-02-28T06:01:34;27.60;;;17.63;;
47545;SDS011;50104;52.002;4.688;2024-02-28T06:06:35;24.45;;;16.92;;
47545;SDS011;50104;52.002;4.688;2024-02-28T06:11:36;25.67;;;17.27;;
47545;SDS011;50104;52.002;4.688;2024-02-28T06:16:37;27.20;;;18.55;;
47545;SDS011;50104;52.002;4.688;2024-02-28T06:21:38;28.75;;;18.08;;
47545;SDS011;50104;52.002;4.688;2024-02-28T06:26:39;28.70;;;18.70;;
47545;SDS011;50104;52.002;4.688;2024-02-28T06:31:42;22.55;;;17.10;;
47545;SDS011;50104;52.002;4.688;2024-02-28T06:36:43;23.70;;;16.92;;
47545;SDS011;50104;52.002;4.688;2024-02-28T06:41:44;25.52;;;18.65;;
47545;SDS011;50104;52.002;4.688;2024-02-28T06:46:45;26.70;;;18.10;;
47545;SDS011;50104;52.002;4.688;2024-02-28T06:51:46;30.58;;;20.33;;
47545;SDS011;50104;52.002;4.688;2024-02-28T06:56:47;24.73;;;19.23;;
47545;SDS011;50104;52.002;4.688;2024-02-28T07:01:48;25.75;;;18.75;;
47545;SDS011;50104;52.002;4.688;2024-02-28T07:06:48;31.52;;;18.25;;
47545;SDS011;50104;52.002;4.688;2024-02-28T07:11:49;25.85;;;19.35;;
47545;SDS011;50104;52.002;4.688;2024-02-28T07:16:53;30.00;;;19.40;;
47545;SDS011;50104;52.002;4.688;2024-02-28T07:21:54;27.70;;;18.92;;
47545;SDS011;50104;52.002;4.688;2024-02-28T07:26:55;26.60;;;20.35;;
47545;SDS011;50104;52.002;4.688;2024-02-28T07:31:57;27.00;;;19.65;;
47545;SDS011;50104;52.002;4.688;2024-02-28T07:36:58;33.05;;;20.70;;
47545;SDS011;50104;52.002;4.688;2024-02-28T07:41:59;30.80;;;19.33;;
47545;SDS011;50104;52.002;4.688;2024-02-28T07:46:59;33.00;;;19.83;;
47545;SDS011;50104;52.002;4.688;2024-02-28T07:52:00;25.92;;;17.63;;
47545;SDS011;50104;52.002;4.688;2024-02-28T07:57:01;28.45;;;19.83;;
47545;SDS011;50104;52.002;4.688;2024-02-28T08:02:02;26.42;;;19.00;;
47545;SDS011;50104;52.002;4.688;2024-02-28T08:07:03;27.30;;;18.50;;
47545;SDS011;50104;52.002;4.688;2024-02-28T08:12:05;30.65;;;20.08;;
47545;SDS011;50104;52.002;4.688;2024-02-28T08:17:08;28.35;;;20.00;;
47545;SDS011;50104;52.002;4.688;2024-02-28T08:22:09;28.48;;;20.73;;
47545;SDS011;50104;52.002;4.688;2024-02-28T08:27:11;30.52;;;20.17;;
47545;SDS011;50104;52.002;4.688;2024-02-28T08:32:14;29.95;;;20.08;;
47545;SDS011;50104;52.002;4.688;2024-02-28T08:37:15;28.52;;;20.23;;
47545;SDS011;50104;52.002;4.688;2024-02-28T08:42:17;27.00;;;19.10;;
47545;SDS011;50104;52.002;4.688;2024-02-28T08:47:18;26.70;;;18.42;;
47545;SDS011;50104;52.002;4.688;2024-02-28T08:52:19;33.78;;;20.95;;
47545;SDS011;50104;52.002;4.688;2024-02-28T08:57:21;29.33;;;19.63;;
47545;SDS011;50104;52.002;4.688;2024-02-28T09:02:23;26.40;;;19.58;;
47545;SDS011;50104;52.002;4.688;2024-02-28T09:07:24;30.92;;;20.42;;
47545;SDS011;50104;52.002;4.688;2024-02-28T09:12:25;30.48;;;21.00;;
47545;SDS011;50104;52.002;4.688;2024-02-28T09:17:25;32.47;;;21.17;;
47545;SDS011;50104;52.002;4.688;2024-02-28T09:22:26;31.60;;;20.40;;
47545;SDS011;50104;52.002;4.688;2024-02-28T09:27:27;30.38;;;21.95;;
47545;SDS011;50104;52.002;4.688;2024-02-28T09:32:28;34.10;;;21.85;;
47545;SDS011;50104;52.002;4.688;2024-02-28T09:37:29;30.73;;;21.92;;
47545;SDS011;50104;52.002;4.688;2024-02-28T09:42:29;33.22;;;21.60;;
47545;SDS011;50104;52.002;4.688;2024-02-28T09:47:31;33.10;;;21.40;;
47545;SDS011;50104;52.002;4.688;2024-02-28T09:52:32;28.75;;;21.75;;
47545;SDS011;50104;52.002;4.688;2024-02-28T09:57:33;31.85;;;21.08;;
47545;SDS011;50104;52.002;4.688;2024-02-28T10:02:35;30.88;;;21.17;;
47545;SDS011;50104;52.002;4.688;2024-02-28T10:07:37;27.60;;;19.60;;
47545;SDS011;50104;52.002;4.688;2024-02-28T10:12:41;31.77;;;21.52;;
47545;SDS011;50104;52.002;4.688;2024-02-28T10:17:43;31.67;;;21.20;;
47545;SDS011;50104;52.002;4.688;2024-02-28T10:22:44;29.52;;;19.23;;
47545;SDS011;50104;52.002;4.688;2024-02-28T10:27:46;28.70;;;19.65;;
47545;SDS011;50104;52.002;4.688;2024-02-28T10:32:50;30.02;;;20.58;;
47545;SDS011;50104;52.002;4.688;2024-02-28T10:37:51;29.65;;;19.85;;
47545;SDS011;50104;52.002;4.688;2024-02-28T10:42:56;31.00;;;19.92;;
47545;SDS011;50104;52.002;4.688;2024-02-28T10:47:59;29.13;;;19.58;;
47545;SDS011;50104;52.002;4.688;2024-02-28T10:53:02;21.02;;;15.75;;
47545;SDS011;50104;52.002;4.688;2024-02-28T10:58:09;24.42;;;15.60;;
47545;SDS011;50104;52.002;4.688;2024-02-28T11:03:11;21.30;;;15.45;;
47545;SDS011;50104;52.002;4.688;2024-02-28T11:08:20;20.35;;;14.48;;
47545;SDS011;50104;52.002;4.688;2024-02-28T11:13:23;21.30;;;14.25;;
47545;SDS011;50104;52.002;4.688;2024-02-28T11:18:25;19.73;;;14.13;;
47545;SDS011;50104;52.002;4.688;2024-02-28T11:23:34;20.40;;;14.93;;
47545;SDS011;50104;52.002;4.688;2024-02-28T11:28:38;21.00;;;12.52;;
47545;SDS011;50104;52.002;4.688;2024-02-28T11:33:40;17.85;;;13.65;;
47545;SDS011;50104;52.002;4.688;2024-02-28T11:38:40;17.50;;;12.82;;
47545;SDS011;50104;52.002;4.688;2024-02-28T11:43:41;19.48;;;14.48;;
47545;SDS011;50104;52.002;4.688;2024-02-28T11:48:42;18.20;;;13.32;;
47545;SDS011;50104;52.002;4.688;2024-02-28T11:53:43;24.45;;;15.43;;
47545;SDS011;50104;52.002;4.688;2024-02-28T11:58:51;25.88;;;15.50;;
47545;SDS011;50104;52.002;4.688;2024-02-28T12:03:58;22.27;;;14.80;;
47545;SDS011;50104;52.002;4.688;2024-02-28T12:08:59;22.70;;;15.82;;
47545;SDS011;50104;52.002;4.688;2024-02-28T12:14:02;25.35;;;17.42;;
47545;SDS011;50104;52.002;4.688;2024-02-28T12:19:07;24.47;;;17.27;;
47545;SDS011;50104;52.002;4.688;2024-02-28T12:24:10;25.00;;;18.67;;
47545;SDS011;50104;52.002;4.688;2024-02-28T12:29:11;25.85;;;19.10;;
47545;SDS011;50104;52.002;4.688;2024-02-28T12:34:12;31.30;;;21.55;;
47545;SDS011;50104;52.002;4.688;2024-02-28T12:39:15;29.02;;;23.13;;
47545;SDS011;50104;52.002;4.688;2024-02-28T12:44:16;31.33;;;21.30;;
47545;SDS011;50104;52.002;4.688;2024-02-28T12:49:16;30.75;;;22.60;;
47545;SDS011;50104;52.002;4.688;2024-02-28T12:54:17;29.67;;;20.17;;
47545;SDS011;50104;52.002;4.688;2024-02-28T12:59:20;28.80;;;18.65;;
47545;SDS011;50104;52.002;4.688;2024-02-28T13:04:21;29.80;;;20.23;;
47545;SDS011;50104;52.002;4.688;2024-02-28T13:09:22;35.95;;;20.02;;
47545;SDS011;50104;52.002;4.688;2024-02-28T13:14:23;36.03;;;21.05;;
47545;SDS011;50104;52.002;4.688;2024-02-28T13:19:24;30.58;;;20.42;;
47545;SDS011;50104;52.002;4.688;2024-02-28T13:24:25;31.85;;;21.33;;
47545;SDS011;50104;52.002;4.688;2024-02-28T13:29:26;31.95;;;20.40;;
47545;SDS011;50104;52.002;4.688;2024-02-28T13:34:27;27.83;;;20.40;;
47545;SDS011;50104;52.002;4.688;2024-02-28T13:39:29;29.20;;;20.20;;
47545;SDS011;50104;52.002;4.688;2024-02-28T13:44:30;30.95;;;20.40;;
47545;SDS011;50104;52.002;4.688;2024-02-28T13:49:31;26.65;;;18.08;;
47545;SDS011;50104;52.002;4.688;2024-02-28T13:54:32;26.23;;;18.45;;
47545;SDS011;50104;52.002;4.688;2024-02-28T13:59:33;25.88;;;17.65;;
47545;SDS011;50104;52.002;4.688;2024-02-28T14:04:35;24.80;;;16.52;;
47545;SDS011;50104;52.002;4.688;2024-02-28T14:09:36;21.67;;;14.43;;
47545;SDS011;50104;52.002;4.688;2024-02-28T14:14:37;16.95;;;13.43;;
47545;SDS011;50104;52.002;4.688;2024-02-28T14:19:39;25.95;;;15.70;;
47545;SDS011;50104;52.002;4.688;2024-02-28T14:24:40;20.92;;;16.48;;
47545;SDS011;50104;52.002;4.688;2024-02-28T14:29:41;22.02;;;16.15;;
47545;SDS011;50104;52.002;4.688;2024-02-28T14:34:42;23.58;;;17.70;;
47545;SDS011;50104;52.002;4.688;2024-02-28T14:39:42;24.98;;;18.10;;
47545;SDS011;50104;52.002;4.688;2024-02-28T14:44:43;26.13;;;16.20;;
47545;SDS011;50104;52.002;4.688;2024-02-28T14:49:44;20.02;;;14.65;;
47545;SDS011;50104;52.002;4.688;2024-02-28T14:54:45;22.15;;;16.35;;
47545;SDS011;50104;52.002;4.688;2024-02-28T14:59:46;18.90;;;15.07;;
47545;SDS011;50104;52.002;4.688;2024-02-28T15:04:47;16.40;;;12.93;;
47545;SDS011;50104;52.002;4.688;2024-02-28T15:09:49;20.85;;;13.30;;
47545;SDS011;50104;52.002;4.688;2024-02-28T15:14:50;16.65;;;11.38;;
47545;SDS011;50104;52.002;4.688;2024-02-28T15:19:51;11.98;;;9.68;;
47545;SDS011;50104;52.002;4.688;2024-02-28T15:24:52;13.35;;;10.13;;
47545;SDS011;50104;52.002;4.688;2024-02-28T15:29:53;14.48;;;10.68;;
47545;SDS011;50104;52.002;4.688;2024-02-28T15:34:54;15.15;;;10.95;;
47545;SDS011;50104;52.002;4.688;2024-02-28T15:39:55;16.45;;;11.18;;
47545;SDS011;50104;52.002;4.688;2024-02-28T15:44:56;17.08;;;10.82;;
47545;SDS011;50104;52.002;4.688;2024-02-28T15:49:57;15.75;;;11.20;;
47545;SDS011;50104;52.002;4.688;2024-02-28T15:54:58;15.10;;;10.93;;
47545;SDS011;50104;52.002;4.688;2024-02-28T15:59:59;15.30;;;12.20;;
47545;SDS011;50104;52.002;4.688;2024-02-28T16:05:00;12.50;;;9.60;;
47545;SDS011;50104;52.002;4.688;2024-02-28T16:10:01;14.32;;;10.27;;
47545;SDS011;50104;52.002;4.688;2024-02-28T16:15:02;15.32;;;11.45;;
47545;SDS011;50104;52.002;4.688;2024-02-28T16:20:04;13.30;;;11.13;;
47545;SDS011;50104;52.002;4.688;2024-02-28T16:25:05;16.27;;;11.38;;
47545;SDS011;50104;52.002;4.688;2024-02-28T16:30:07;14.98;;;11.85;;
47545;SDS011;50104;52.002;4.688;2024-02-28T16:35:08;15.73;;;11.98;;
47545;SDS011;50104;52.002;4.688;2024-02-28T16:40:09;16.42;;;12.10;;
47545;SDS011;50104;52.002;4.688;2024-02-28T16:45:10;16.42;;;10.27;;
47545;SDS011;50104;52.002;4.688;2024-02-28T16:50:11;16.27;;;10.80;;
47545;SDS011;50104;52.002;4.688;2024-02-28T16:55:12;15.15;;;11.98;;
47545;SDS011;50104;52.002;4.688;2024-02-28T17:00:13;16.77;;;12.45;;
47545;SDS011;50104;52.002;4.688;2024-02-28T17:05:17;21.27;;;13.80;;
47545;SDS011;50104;52.002;4.688;2024-02-28T17:10:18;17.65;;;14.82;;
47545;SDS011;50104;52.002;4.688;2024-02-28T17:15:18;22.60;;;14.55;;
47545;SDS011;50104;52.002;4.688;2024-02-28T17:20:19;17.55;;;14.05;;
47545;SDS011;50104;52.002;4.688;2024-02-28T17:25:20;16.58;;;13.60;;
47545;SDS011;50104;52.002;4.688;2024-02-28T17:30:21;20.45;;;13.68;;
47545;SDS011;50104;52.002;4.688;2024-02-28T17:35:22;18.55;;;13.52;;
47545;SDS011;50104;52.002;4.688;2024-02-28T17:40:23;17.65;;;13.15;;
47545;SDS011;50104;52.002;4.688;2024-02-28T17:45:24;17.55;;;11.98;;
47545;SDS011;50104;52.002;4.688;2024-02-28T17:50:25;20.00;;;13.38;;
47545;SDS011;50104;52.002;4.688;2024-02-28T17:55:26;16.75;;;12.20;;
47545;SDS011;50104;52.002;4.688;2024-02-28T18:00:28;17.80;;;12.20;;
47545;SDS011;50104;52.002;4.688;2024-02-28T18:05:31;19.25;;;12.90;;
47545;SDS011;50104;52.002;4.688;2024-02-28T18:10:32;18.75;;;12.77;;
47545;SDS011;50104;52.002;4.688;2024-02-28T18:15:33;20.35;;;12.77;;
47545;SDS011;50104;52.002;4.688;2024-02-28T18:20:33;17.23;;;11.80;;
47545;SDS011;50104;52.002;4.688;2024-02-28T18:25:34;14.90;;;11.35;;
47545;SDS011;50104;52.002;4.688;2024-02-28T18:30:35;16.42;;;11.65;;
47545;SDS011;50104;52.002;4.688;2024-02-28T18:35:36;20.33;;;10.73;;
47545;SDS011;50104;52.002;4.688;2024-02-28T18:40:37;16.92;;;11.27;;
47545;SDS011;50104;52.002;4.688;2024-02-28T18:45:39;18.88;;;13.95;;
47545;SDS011;50104;52.002;4.688;2024-02-28T18:50:40;20.15;;;12.85;;
47545;SDS011;50104;52.002;4.688;2024-02-28T18:55:41;16.30;;;12.02;;
47545;SDS011;50104;52.002;4.688;2024-02-28T19:00:42;17.35;;;11.60;;
47545;SDS011;50104;52.002;4.688;2024-02-28T19:05:46;16.42;;;12.00;;
47545;SDS011;50104;52.002;4.688;2024-02-28T19:10:47;19.38;;;11.88;;
47545;SDS011;50104;52.002;4.688;2024-02-28T19:15:48;17.67;;;10.40;;
47545;SDS011;50104;52.002;4.688;2024-02-28T19:20:49;11.98;;;9.10;;
47545;SDS011;50104;52.002;4.688;2024-02-28T19:25:51;13.02;;;8.55;;
47545;SDS011;50104;52.002;4.688;2024-02-28T19:30:52;12.30;;;8.75;;
47545;SDS011;50104;52.002;4.688;2024-02-28T19:35:54;10.02;;;8.07;;
47545;SDS011;50104;52.002;4.688;2024-02-28T19:40:54;12.80;;;8.13;;
47545;SDS011;50104;52.002;4.688;2024-02-28T19:45:55;11.40;;;7.63;;
47545;SDS011;50104;52.002;4.688;2024-02-28T19:50:56;9.93;;;7.28;;
47545;SDS011;50104;52.002;4.688;2024-02-28T19:55:57;8.65;;;7.13;;
47545;SDS011;50104;52.002;4.688;2024-02-28T20:00:58;8.65;;;6.43;;
47545;SDS011;50104;52.002;4.688;2024-02-28T20:05:59;7.55;;;6.35;;
47545;SDS011;50104;52.002;4.688;2024-02-28T20:11:00;9.32;;;6.55;;
47545;SDS011;50104;52.002;4.688;2024-02-28T20:16:02;7.63;;;6.55;;
47545;SDS011;50104;52.002;4.688;2024-02-28T20:21:03;8.85;;;6.45;;
47545;SDS011;50104;52.002;4.688;2024-02-28T20:26:08;7.03;;;5.68;;
47545;SDS011;50104;52.002;4.688;2024-02-28T20:31:09;9.73;;;6.25;;
47545;SDS011;50104;52.002;4.688;2024-02-28T20:36:10;7.93;;;5.95;;
47545;SDS011;50104;52.002;4.688;2024-02-28T20:41:11;10.57;;;6.13;;
47545;SDS011;50104;52.002;4.688;2024-02-28T20:46:12;7.10;;;6.40;;
47545;SDS011;50104;52.002;4.688;2024-02-28T20:51:13;9.23;;;6.40;;
47545;SDS011;50104;52.002;4.688;2024-02-28T20:56:14;9.10;;;7.45;;
47545;SDS011;50104;52.002;4.688;2024-02-28T21:01:15;10.45;;;7.55;;
47545;SDS011;50104;52.002;4.688;2024-02-28T21:06:17;10.25;;;6.95;;
47545;SDS011;50104;52.002;4.688;2024-02-28T21:11:19;8.65;;;6.95;;
47545;SDS011;50104;52.002;4.688;2024-02-28T21:16:20;9.88;;;6.95;;
47545;SDS011;50104;52.002;4.688;2024-02-28T21:21:22;11.32;;;7.50;;
47545;SDS011;50104;52.002;4.688;2024-02-28T21:26:26;9.00;;;7.68;;
47545;SDS011;50104;52.002;4.688;2024-02-28T21:31:27;9.35;;;7.65;;
47545;SDS011;50104;52.002;4.688;2024-02-28T21:36:28;11.13;;;8.27;;
47545;SDS011;50104;52.002;4.688;2024-02-28T21:41:29;9.68;;;7.93;;
47545;SDS011;50104;52.002;4.688;2024-02-28T21:46:30;10.40;;;7.85;;
47545;SDS011;50104;52.002;4.688;2024-02-28T21:51:31;13.52;;;8.25;;
47545;SDS011;50104;52.002;4.688;2024-02-28T21:56:32;11.30;;;7.88;;
47545;SDS011;50104;52.002;4.688;2024-02-28T22:01:33;12.63;;;8.95;;
47545;SDS011;50104;52.002;4.688;2024-02-28T22:06:33;17.60;;;9.30;;
47545;SDS011;50104;52.002;4.688;2024-02-28T22:11:34;17.42;;;10.52;;
47545;SDS011;50104;52.002;4.688;2024-02-28T22:16:35;15.30;;;10.93;;
47545;SDS011;50104;52.002;4.688;2024-02-28T22:21:36;15.85;;;10.38;;
47545;SDS011;50104;52.002;4.688;2024-02-28T22:26:38;21.15;;;12.65;;
47545;SDS011;50104;52.002;4.688;2024-02-28T22:31:39;17.58;;;11.95;;
47545;SDS011;50104;52.002;4.688;2024-02-28T22:36:40;19.77;;;13.18;;
47545;SDS011;50104;52.002;4.688;2024-02-28T22:41:41;23.85;;;13.45;;
47545;SDS011;50104;52.002;4.688;2024-02-28T22:46:42;17.75;;;12.35;;
47545;SDS011;50104;52.002;4.688;2024-02-28T22:51:43;22.45;;;12.50;;
47545;SDS011;50104;52.002;4.688;2024-02-28T22:56:44;20.50;;;12.07;;
47545;SDS011;50104;52.002;4.688;2024-02-28T23:01:45;21.08;;;11.52;;
47545;SDS011;50104;52.002;4.688;2024-02-28T23:06:48;18.65;;;11.52;;
47545;SDS011;50104;52.002;4.688;2024-02-28T23:11:49;19.42;;;13.23;;
47545;SDS011;50104;52.002;4.688;2024-02-28T23:16:49;23.38;;;14.10;;
47545;SDS011;50104;52.002;4.688;2024-02-28T23:21:50;18.88;;;12.82;;
47545;SDS011;50104;52.002;4.688;2024-02-28T23:26:51;22.85;;;14.20;;
47545;SDS011;50104;52.002;4.688;2024-02-28T23:31:52;21.98;;;13.80;;
47545;SDS011;50104;52.002;4.688;2024-02-28T23:36:53;23.45;;;14.05;;
47545;SDS011;50104;52.002;4.688;2024-02-28T23:41:54;26.27;;;16.95;;
47545;SDS011;50104;52.002;4.688;2024-02-28T23:46:55;26.52;;;15.63;;
47545;SDS011;50104;52.002;4.688;2024-02-28T23:51:56;25.33;;;14.50;;
47545;SDS011;50104;52.002;4.688;2024-02-28T23:56:57;20.73;;;14.15;;
